CheckWX is a tool to help pilots better visualize weather data.  It is not intended as a substitute for an official pre-flight weather briefing.

00:50:38 UTC

EGXW TAF
RAF Waddington Airport
Waddington, United Kingdom
TAF EGXW 090759Z 0909/1003 VRB05KT 8000 -RADZ BKN008 PROB30 TEMPO 0909/0912 1500 RADZ BKN003 PROB30 TEMPO 0912/0924 2200 -RADZ BKN004 BECMG 1000/1003 NSW BKN030 PROB30 TEMPO 1000/1003 5000 SHRA SCT020

Jul-9@
09:00 UTC

Jul-9 @ 09:00 UTC

Jul-10@
00:00 UTC

Jul-10 @ 00:00 UTC

TAF EGXW 090759Z 0909/1003 VRB05KT 8000 -RADZ BKN008

Expired

Wind
  • Variable at 5 KTS
Conditions
Light Rain, Light Drizzle
Cloud Levels
  • Broken at 800' AGL

Jul-9@
09:00 UTC

Jul-9 @ 09:00 UTC

Jul-9@
12:00 UTC

Jul-9 @ 12:00 UTC

PROB30 TEMPO 0909/0912 1500 RADZ BKN003

Expired

Conditions
Rain, Drizzle
Cloud Levels
  • Broken at 300' AGL

Jul-9@
12:00 UTC

Jul-9 @ 12:00 UTC

Jul-10@
00:00 UTC

Jul-10 @ 00:00 UTC

PROB30 TEMPO 0912/0924 2200 -RADZ BKN004

Expired

Conditions
Light Rain, Light Drizzle
Cloud Levels
  • Broken at 400' AGL

Jul-10@
00:00 UTC

Jul-10 @ 00:00 UTC

Jul-10@
03:00 UTC

Jul-10 @ 03:00 UTC

BECMG 1000/1003 NSW BKN030

Becoming

Becoming Conditions expected by Fri, Jul 10, 2020 @ 03:00 UTC

Wind
  • Variable at 5 KTS
Conditions
No significant weather
Cloud Levels
  • Broken at 3,000' AGL

Jul-10@
00:00 UTC

Jul-10 @ 00:00 UTC

Jul-10@
03:00 UTC

Jul-10 @ 03:00 UTC

PROB30 TEMPO 1000/1003 5000 SHRA SCT020

Temporary - 30% Likelihood

Temporary - 30% Likelihood during this time.

Conditions
Showers, Rain
Cloud Levels
  • Scattered at 2,000' AGL